sensor_id;sensor_type;location;lat;lon;timestamp;pressure;altitude;pressure_sealevel;temperature;humidity
20115;BME280;10218;42.874;25.320;2022-10-12T00:01:36;97812.38;;;13.96;100.00
20115;BME280;10218;42.874;25.320;2022-10-12T00:04:04;97808.56;;;13.91;100.00
20115;BME280;10218;42.874;25.320;2022-10-12T00:06:30;97798.72;;;13.75;100.00
20115;BME280;10218;42.874;25.320;2022-10-12T00:08:57;97813.91;;;13.91;100.00
20115;BME280;10218;42.874;25.320;2022-10-12T00:11:26;97808.16;;;13.71;100.00
20115;BME280;10218;42.874;25.320;2022-10-12T00:13:56;97812.47;;;13.80;100.00
20115;BME280;10218;42.874;25.320;2022-10-12T00:16:24;97815.84;;;13.74;100.00
20115;BME280;10218;42.874;25.320;2022-10-12T00:18:53;97807.44;;;13.77;100.00
20115;BME280;10218;42.874;25.320;2022-10-12T00:21:22;97799.69;;;13.82;100.00
20115;BME280;10218;42.874;25.320;2022-10-12T00:23:51;97796.69;;;13.77;100.00
20115;BME280;10218;42.874;25.320;2022-10-12T00:26:21;97808.03;;;13.87;100.00
20115;BME280;10218;42.874;25.320;2022-10-12T00:28:54;97803.88;;;13.85;100.00
20115;BME280;10218;42.874;25.320;2022-10-12T00:31:24;97811.22;;;13.91;100.00
20115;BME280;10218;42.874;25.320;2022-10-12T00:33:52;97800.97;;;13.94;100.00
20115;BME280;10218;42.874;25.320;2022-10-12T00:36:31;97803.88;;;13.85;100.00
20115;BME280;10218;42.874;25.320;2022-10-12T00:39:00;97800.00;;;13.87;100.00
20115;BME280;10218;42.874;25.320;2022-10-12T00:41:33;97805.87;;;13.91;100.00
20115;BME280;10218;42.874;25.320;2022-10-12T00:44:01;97797.16;;;14.11;100.00
20115;BME280;10218;42.874;25.320;2022-10-12T00:46:35;97804.72;;;14.08;100.00
20115;BME280;10218;42.874;25.320;2022-10-12T00:49:22;97804.13;;;13.98;100.00
20115;BME280;10218;42.874;25.320;2022-10-12T00:51:59;97801.13;;;13.93;100.00
20115;BME280;10218;42.874;25.320;2022-10-12T00:54:33;97815.41;;;13.93;100.00
20115;BME280;10218;42.874;25.320;2022-10-12T00:57:05;97812.38;;;13.96;100.00
20115;BME280;10218;42.874;25.320;2022-10-12T00:59:45;97812.25;;;13.90;100.00
20115;BME280;10218;42.874;25.320;2022-10-12T01:02:14;97808.47;;;13.99;100.00
20115;BME280;10218;42.874;25.320;2022-10-12T01:04:44;97798.34;;;13.86;100.00
20115;BME280;10218;42.874;25.320;2022-10-12T01:07:12;97808.66;;;13.97;100.00
20115;BME280;10218;42.874;25.320;2022-10-12T01:09:40;97803.41;;;13.81;100.00
20115;BME280;10218;42.874;25.320;2022-10-12T01:12:09;97808.41;;;13.84;100.00
20115;BME280;10218;42.874;25.320;2022-10-12T01:14:37;97805.63;;;14.00;100.00
20115;BME280;10218;42.874;25.320;2022-10-12T01:20:09;97801.66;;;13.88;100.00
20115;BME280;10218;42.874;25.320;2022-10-12T01:22:35;97805.13;;;13.74;100.00
20115;BME280;10218;42.874;25.320;2022-10-12T01:25:09;97808.50;;;13.68;100.00
20115;BME280;10218;42.874;25.320;2022-10-12T01:27:47;97823.16;;;13.57;100.00
20115;BME280;10218;42.874;25.320;2022-10-12T01:30:21;97824.72;;;13.44;100.00
20115;BME280;10218;42.874;25.320;2022-10-12T01:33:03;97822.03;;;13.44;100.00
20115;BME280;10218;42.874;25.320;2022-10-12T01:36:24;97810.41;;;13.59;100.00
20115;BME280;10218;42.874;25.320;2022-10-12T01:43:38;97818.53;;;13.74;100.00
20115;BME280;10218;42.874;25.320;2022-10-12T01:48:59;97826.03;;;13.56;100.00
20115;BME280;10218;42.874;25.320;2022-10-12T01:51:57;97827.13;;;13.69;100.00
20115;BME280;10218;42.874;25.320;2022-10-12T02:00:08;97819.16;;;13.84;100.00
20115;BME280;10218;42.874;25.320;2022-10-12T02:03:03;97829.41;;;13.42;100.00
20115;BME280;10218;42.874;25.320;2022-10-12T02:05:59;97827.03;;;13.55;100.00
20115;BME280;10218;42.874;25.320;2022-10-12T02:08:40;97832.09;;;13.50;100.00
20115;BME280;10218;42.874;25.320;2022-10-12T02:11:16;97834.47;;;13.37;100.00
20115;BME280;10218;42.874;25.320;2022-10-12T02:13:47;97833.75;;;13.51;100.00
20115;BME280;10218;42.874;25.320;2022-10-12T02:16:19;97838.19;;;13.66;100.00
20115;BME280;10218;42.874;25.320;2022-10-12T02:18:51;97831.25;;;13.49;100.00
20115;BME280;10218;42.874;25.320;2022-10-12T02:21:26;97827.13;;;13.69;100.00
20115;BME280;10218;42.874;25.320;2022-10-12T02:24:01;97829.81;;;13.61;100.00
20115;BME280;10218;42.874;25.320;2022-10-12T02:26:35;97828.09;;;13.46;100.00
20115;BME280;10218;42.874;25.320;2022-10-12T02:29:09;97836.63;;;13.49;100.00
20115;BME280;10218;42.874;25.320;2022-10-12T02:31:55;97839.16;;;13.43;100.00
20115;BME280;10218;42.874;25.320;2022-10-12T02:34:32;97844.50;;;13.51;100.00
20115;BME280;10218;42.874;25.320;2022-10-12T02:37:08;97841.31;;;13.47;100.00
20115;BME280;10218;42.874;25.320;2022-10-12T02:39:55;97842.50;;;13.45;100.00
20115;BME280;10218;42.874;25.320;2022-10-12T02:42:30;97835.19;;;13.31;100.00
20115;BME280;10218;42.874;25.320;2022-10-12T02:45:06;97846.56;;;13.33;100.00
20115;BME280;10218;42.874;25.320;2022-10-12T02:47:36;97843.87;;;13.33;100.00
20115;BME280;10218;42.874;25.320;2022-10-12T02:50:05;97842.88;;;13.34;100.00
20115;BME280;10218;42.874;25.320;2022-10-12T02:52:34;97839.88;;;13.28;100.00
20115;BME280;10218;42.874;25.320;2022-10-12T02:55:02;97834.72;;;13.19;100.00
20115;BME280;10218;42.874;25.320;2022-10-12T02:57:30;97838.03;;;13.21;100.00
20115;BME280;10218;42.874;25.320;2022-10-12T02:59:57;97839.38;;;13.25;100.00
20115;BME280;10218;42.874;25.320;2022-10-12T03:02:24;97839.22;;;13.18;100.00
20115;BME280;10218;42.874;25.320;2022-10-12T03:04:52;97831.66;;;13.30;100.00
20115;BME280;10218;42.874;25.320;2022-10-12T03:07:19;97845.75;;;13.16;100.00
20115;BME280;10218;42.874;25.320;2022-10-12T03:09:46;97835.16;;;13.39;100.00
20115;BME280;10218;42.874;25.320;2022-10-12T03:12:13;97832.09;;;13.50;100.00
20115;BME280;10218;42.874;25.320;2022-10-12T03:14:40;97831.50;;;13.23;100.00
20115;BME280;10218;42.874;25.320;2022-10-12T03:17:09;97838.28;;;13.50;100.00
20115;BME280;10218;42.874;25.320;2022-10-12T03:19:36;97838.88;;;13.21;100.00
20115;BME280;10218;42.874;25.320;2022-10-12T03:22:05;97835.87;;;13.16;100.00
20115;BME280;10218;42.874;25.320;2022-10-12T03:24:33;97837.34;;;13.27;100.00
20115;BME280;10218;42.874;25.320;2022-10-12T03:27:00;97844.25;;;13.21;100.00
20115;BME280;10218;42.874;25.320;2022-10-12T03:29:27;97826.81;;;13.17;100.00
20115;BME280;10218;42.874;25.320;2022-10-12T03:31:56;97835.03;;;13.08;100.00
20115;BME280;10218;42.874;25.320;2022-10-12T03:34:24;97828.13;;;13.30;100.00
20115;BME280;10218;42.874;25.320;2022-10-12T03:36:51;97832.81;;;13.27;100.00
20115;BME280;10218;42.874;25.320;2022-10-12T03:39:18;97832.81;;;13.36;100.00
20115;BME280;10218;42.874;25.320;2022-10-12T03:41:45;97831.16;;;13.26;100.00
20115;BME280;10218;42.874;25.320;2022-10-12T03:44:13;97836.34;;;13.28;100.00
20115;BME280;10218;42.874;25.320;2022-10-12T03:46:41;97841.59;;;13.13;100.00
20115;BME280;10218;42.874;25.320;2022-10-12T03:49:08;97832.19;;;13.01;100.00
20115;BME280;10218;42.874;25.320;2022-10-12T03:51:35;97836.91;;;12.99;100.00
20115;BME280;10218;42.874;25.320;2022-10-12T03:54:03;97851.31;;;12.90;100.00
20115;BME280;10218;42.874;25.320;2022-10-12T03:56:30;97841.59;;;13.05;100.00
20115;BME280;10218;42.874;25.320;2022-10-12T03:58:57;97837.56;;;13.01;100.00
20115;BME280;10218;42.874;25.320;2022-10-12T04:01:26;97852.00;;;12.84;100.00
20115;BME280;10218;42.874;25.320;2022-10-12T04:03:55;97848.16;;;12.78;100.00
20115;BME280;10218;42.874;25.320;2022-10-12T04:06:23;97848.31;;;12.85;100.00
20115;BME280;10218;42.874;25.320;2022-10-12T04:08:52;97846.97;;;12.89;100.00
20115;BME280;10218;42.874;25.320;2022-10-12T04:11:20;97853.66;;;13.01;100.00
20115;BME280;10218;42.874;25.320;2022-10-12T04:13:47;97854.84;;;12.99;100.00
20115;BME280;10218;42.874;25.320;2022-10-12T04:16:16;97848.97;;;13.11;100.00
20115;BME280;10218;42.874;25.320;2022-10-12T04:18:44;97848.62;;;13.14;100.00
20115;BME280;10218;42.874;25.320;2022-10-12T04:21:13;97846.97;;;13.13;100.00
20115;BME280;10218;42.874;25.320;2022-10-12T04:23:41;97851.47;;;13.05;100.00
20115;BME280;10218;42.874;25.320;2022-10-12T04:26:08;97848.28;;;13.25;100.00
20115;BME280;10218;42.874;25.320;2022-10-12T04:28:35;97845.59;;;13.25;100.00
20115;BME280;10218;42.874;25.320;2022-10-12T04:31:02;97847.41;;;13.33;100.00
20115;BME280;10218;42.874;25.320;2022-10-12T04:33:30;97851.25;;;13.39;100.00
20115;BME280;10218;42.874;25.320;2022-10-12T04:35:57;97849.91;;;13.35;100.00
20115;BME280;10218;42.874;25.320;2022-10-12T04:38:25;97855.94;;;13.37;100.00
20115;BME280;10218;42.874;25.320;2022-10-12T04:40:52;97862.03;;;13.22;100.00
20115;BME280;10218;42.874;25.320;2022-10-12T04:43:19;97866.75;;;13.20;100.00
20115;BME280;10218;42.874;25.320;2022-10-12T04:45:56;97868.75;;;13.10;100.00
20115;BME280;10218;42.874;25.320;2022-10-12T04:48:26;97866.16;;;13.41;100.00
20115;BME280;10218;42.874;25.320;2022-10-12T04:50:53;97858.28;;;13.40;100.00
20115;BME280;10218;42.874;25.320;2022-10-12T04:53:20;97876.00;;;13.57;100.00
20115;BME280;10218;42.874;25.320;2022-10-12T04:55:47;97872.66;;;13.55;100.00
20115;BME280;10218;42.874;25.320;2022-10-12T04:58:14;97880.34;;;13.66;100.00
20115;BME280;10218;42.874;25.320;2022-10-12T05:00:41;97880.28;;;13.27;100.00
20115;BME280;10218;42.874;25.320;2022-10-12T05:03:08;97894.06;;;13.24;100.00
20115;BME280;10218;42.874;25.320;2022-10-12T05:05:35;97892.34;;;13.31;100.00
20115;BME280;10218;42.874;25.320;2022-10-12T05:08:03;97887.19;;;13.13;100.00
20115;BME280;10218;42.874;25.320;2022-10-12T05:10:32;97887.50;;;13.35;100.00
20115;BME280;10218;42.874;25.320;2022-10-12T05:12:59;97876.06;;;13.41;100.00
20115;BME280;10218;42.874;25.320;2022-10-12T05:15:26;97887.41;;;13.59;100.00
20115;BME280;10218;42.874;25.320;2022-10-12T05:17:53;97899.25;;;13.25;100.00
20115;BME280;10218;42.874;25.320;2022-10-12T05:20:20;97905.28;;;13.36;100.00
20115;BME280;10218;42.874;25.320;2022-10-12T05:22:47;97892.47;;;13.54;100.00
20115;BME280;10218;42.874;25.320;2022-10-12T05:25:15;97894.09;;;13.63;100.00
20115;BME280;10218;42.874;25.320;2022-10-12T05:27:42;97896.25;;;13.76;100.00
20115;BME280;10218;42.874;25.320;2022-10-12T05:30:09;97903.88;;;13.48;100.00
20115;BME280;10218;42.874;25.320;2022-10-12T05:32:37;97901.22;;;13.87;100.00
20115;BME280;10218;42.874;25.320;2022-10-12T05:35:04;97898.09;;;13.75;100.00
20115;BME280;10218;42.874;25.320;2022-10-12T05:37:32;97897.56;;;13.80;100.00
20115;BME280;10218;42.874;25.320;2022-10-12T05:40:00;97902.53;;;13.60;100.00
20115;BME280;10218;42.874;25.320;2022-10-12T05:42:27;97899.16;;;13.58;100.00
20115;BME280;10218;42.874;25.320;2022-10-12T05:44:55;97903.53;;;13.59;100.00
20115;BME280;10218;42.874;25.320;2022-10-12T05:47:23;97910.88;;;13.65;100.00
20115;BME280;10218;42.874;25.320;2022-10-12T05:49:50;97912.94;;;13.55;100.00
20115;BME280;10218;42.874;25.320;2022-10-12T05:52:17;97909.47;;;13.77;100.00
20115;BME280;10218;42.874;25.320;2022-10-12T05:54:44;97918.63;;;13.99;100.00
20115;BME280;10218;42.874;25.320;2022-10-12T05:57:11;97914.22;;;13.67;100.00
20115;BME280;10218;42.874;25.320;2022-10-12T05:59:41;97911.19;;;14.09;100.00
20115;BME280;10218;42.874;25.320;2022-10-12T06:02:12;97925.03;;;14.29;100.00
20115;BME280;10218;42.874;25.320;2022-10-12T06:04:39;97914.41;;;14.04;100.00
20115;BME280;10218;42.874;25.320;2022-10-12T06:07:07;97929.94;;;14.25;100.00
20115;BME280;10218;42.874;25.320;2022-10-12T06:09:34;97923.28;;;14.44;100.00
20115;BME280;10218;42.874;25.320;2022-10-12T06:12:06;97924.19;;;14.36;100.00
20115;BME280;10218;42.874;25.320;2022-10-12T06:14:33;97915.56;;;14.10;100.00
20115;BME280;10218;42.874;25.320;2022-10-12T06:17:00;97924.50;;;14.33;100.00
20115;BME280;10218;42.874;25.320;2022-10-12T06:19:27;97919.94;;;14.42;100.00
20115;BME280;10218;42.874;25.320;2022-10-12T06:21:54;97930.63;;;14.50;100.00
20115;BME280;10218;42.874;25.320;2022-10-12T06:24:21;97934.22;;;14.03;100.00
20115;BME280;10218;42.874;25.320;2022-10-12T06:26:48;97933.13;;;14.21;100.00
20115;BME280;10218;42.874;25.320;2022-10-12T06:29:15;97943.50;;;14.32;100.00
20115;BME280;10218;42.874;25.320;2022-10-12T06:31:43;97942.28;;;14.34;100.00
20115;BME280;10218;42.874;25.320;2022-10-12T06:34:13;97941.72;;;14.16;100.00
20115;BME280;10218;42.874;25.320;2022-10-12T06:36:40;97939.78;;;14.33;100.00
20115;BME280;10218;42.874;25.320;2022-10-12T06:39:08;97939.06;;;14.47;100.00
20115;BME280;10218;42.874;25.320;2022-10-12T06:41:35;97940.69;;;15.02;100.00
20115;BME280;10218;42.874;25.320;2022-10-12T06:44:06;97938.06;;;14.71;100.00
20115;BME280;10218;42.874;25.320;2022-10-12T06:46:34;97949.84;;;14.92;100.00
20115;BME280;10218;42.874;25.320;2022-10-12T06:49:02;97946.31;;;14.92;100.00
20115;BME280;10218;42.874;25.320;2022-10-12T06:51:29;97960.69;;;14.99;100.00
20115;BME280;10218;42.874;25.320;2022-10-12T06:53:56;97943.28;;;15.10;100.00
20115;BME280;10218;42.874;25.320;2022-10-12T06:56:23;97945.38;;;15.22;100.00
20115;BME280;10218;42.874;25.320;2022-10-12T06:58:54;97938.44;;;15.28;100.00
20115;BME280;10218;42.874;25.320;2022-10-12T07:01:21;97950.50;;;15.69;100.00
20115;BME280;10218;42.874;25.320;2022-10-12T07:03:49;97946.59;;;15.72;100.00
20115;BME280;10218;42.874;25.320;2022-10-12T07:06:16;97947.44;;;15.50;100.00
20115;BME280;10218;42.874;25.320;2022-10-12T07:08:43;97957.81;;;15.75;100.00
20115;BME280;10218;42.874;25.320;2022-10-12T07:11:12;97950.50;;;15.84;100.00
20115;BME280;10218;42.874;25.320;2022-10-12T07:13:39;97951.97;;;15.72;100.00
20115;BME280;10218;42.874;25.320;2022-10-12T07:16:07;97950.69;;;15.68;100.00
20115;BME280;10218;42.874;25.320;2022-10-12T07:18:34;97957.38;;;15.49;100.00
20115;BME280;10218;42.874;25.320;2022-10-12T07:21:02;97947.59;;;15.86;100.00
20115;BME280;10218;42.874;25.320;2022-10-12T07:23:31;97950.84;;;15.96;100.00
20115;BME280;10218;42.874;25.320;2022-10-12T07:25:59;97950.28;;;15.86;100.00
20115;BME280;10218;42.874;25.320;2022-10-12T07:28:27;97955.28;;;16.33;100.00
20115;BME280;10218;42.874;25.320;2022-10-12T07:30:59;97949.16;;;16.24;100.00
20115;BME280;10218;42.874;25.320;2022-10-12T07:33:30;97948.53;;;16.07;100.00
20115;BME280;10218;42.874;25.320;2022-10-12T07:35:58;97950.97;;;16.38;100.00
20115;BME280;10218;42.874;25.320;2022-10-12T07:38:41;97948.06;;;16.90;100.00
20115;BME280;10218;42.874;25.320;2022-10-12T07:41:12;97944.22;;;16.27;100.00
20115;BME280;10218;42.874;25.320;2022-10-12T07:43:39;97942.75;;;16.61;100.00
20115;BME280;10218;42.874;25.320;2022-10-12T07:46:07;97945.38;;;16.54;100.00
20115;BME280;10218;42.874;25.320;2022-10-12T07:48:34;97945.06;;;16.28;100.00
20115;BME280;10218;42.874;25.320;2022-10-12T07:51:06;97949.13;;;16.39;100.00
20115;BME280;10218;42.874;25.320;2022-10-12T07:53:34;97945.66;;;16.59;100.00
20115;BME280;10218;42.874;25.320;2022-10-12T07:56:03;97955.81;;;17.21;100.00
20115;BME280;10218;42.874;25.320;2022-10-12T07:58:31;97950.69;;;17.05;100.00
20115;BME280;10218;42.874;25.320;2022-10-12T08:01:07;97949.84;;;17.53;100.00
20115;BME280;10218;42.874;25.320;2022-10-12T08:03:35;97954.00;;;17.28;100.00
20115;BME280;10218;42.874;25.320;2022-10-12T08:06:10;97958.13;;;16.60;100.00
20115;BME280;10218;42.874;25.320;2022-10-12T08:08:38;97960.78;;;16.96;100.00
20115;BME280;10218;42.874;25.320;2022-10-12T08:11:06;97955.06;;;17.06;100.00
20115;BME280;10218;42.874;25.320;2022-10-12T08:13:34;97955.69;;;17.08;100.00
20115;BME280;10218;42.874;25.320;2022-10-12T08:16:03;97954.66;;;16.88;100.00
20115;BME280;10218;42.874;25.320;2022-10-12T08:18:30;97950.00;;;16.96;100.00
20115;BME280;10218;42.874;25.320;2022-10-12T08:20:58;97946.41;;;17.38;100.00
20115;BME280;10218;42.874;25.320;2022-10-12T08:23:25;97956.69;;;17.28;100.00
20115;BME280;10218;42.874;25.320;2022-10-12T08:25:53;97953.28;;;17.69;100.00
20115;BME280;10218;42.874;25.320;2022-10-12T08:28:20;97953.22;;;17.90;100.00
20115;BME280;10218;42.874;25.320;2022-10-12T08:30:48;97948.56;;;17.49;100.00
20115;BME280;10218;42.874;25.320;2022-10-12T08:33:16;97942.75;;;18.15;100.00
20115;BME280;10218;42.874;25.320;2022-10-12T08:35:45;97954.81;;;17.50;100.00
20115;BME280;10218;42.874;25.320;2022-10-12T08:38:14;97952.47;;;18.44;100.00
20115;BME280;10218;42.874;25.320;2022-10-12T08:40:54;97948.00;;;18.77;100.00
20115;BME280;10218;42.874;25.320;2022-10-12T08:45:57;97952.63;;;18.35;100.00
20115;BME280;10218;42.874;25.320;2022-10-12T08:48:31;97947.00;;;19.11;100.00
20115;BME280;10218;42.874;25.320;2022-10-12T08:51:06;97944.44;;;18.63;100.00
20115;BME280;10218;42.874;25.320;2022-10-12T08:56:22;97947.22;;;17.39;100.00
20115;BME280;10218;42.874;25.320;2022-10-12T08:58:51;97943.06;;;18.33;100.00
20115;BME280;10218;42.874;25.320;2022-10-12T09:01:32;97952.69;;;19.49;100.00
20115;BME280;10218;42.874;25.320;2022-10-12T09:07:19;97944.53;;;18.42;100.00
20115;BME280;10218;42.874;25.320;2022-10-12T09:15:19;97941.13;;;20.57;100.00
20115;BME280;10218;42.874;25.320;2022-10-12T09:17:51;97950.50;;;20.03;100.00
20115;BME280;10218;42.874;25.320;2022-10-12T09:20:25;97945.97;;;19.84;100.00
20115;BME280;10218;42.874;25.320;2022-10-12T09:23:02;97949.25;;;21.02;100.00
20115;BME280;10218;42.874;25.320;2022-10-12T09:25:31;97934.28;;;19.90;100.00
20115;BME280;10218;42.874;25.320;2022-10-12T09:28:56;97944.81;;;20.76;97.81
20115;BME280;10218;42.874;25.320;2022-10-12T09:31:01;97946.44;;;20.83;100.00
20115;BME280;10218;42.874;25.320;2022-10-12T09:33:48;97943.22;;;21.31;97.03
20115;BME280;10218;42.874;25.320;2022-10-12T09:36:19;97935.69;;;21.33;90.72
20115;BME280;10218;42.874;25.320;2022-10-12T09:38:49;97943.94;;;22.12;82.01
20115;BME280;10218;42.874;25.320;2022-10-12T09:41:22;97942.37;;;21.30;91.97
20115;BME280;10218;42.874;25.320;2022-10-12T09:43:54;97932.00;;;21.21;97.32
20115;BME280;10218;42.874;25.320;2022-10-12T09:46:37;97926.91;;;21.74;90.63
20115;BME280;10218;42.874;25.320;2022-10-12T09:49:06;97923.38;;;21.49;84.46
20115;BME280;10218;42.874;25.320;2022-10-12T09:51:33;97926.06;;;25.54;58.40
20115;BME280;10218;42.874;25.320;2022-10-12T09:54:02;97922.44;;;23.30;62.27
20115;BME280;10218;42.874;25.320;2022-10-12T09:56:47;97919.97;;;22.99;65.59
20115;BME280;10218;42.874;25.320;2022-10-12T09:59:22;97919.13;;;22.69;70.20
20115;BME280;10218;42.874;25.320;2022-10-12T10:01:57;97916.66;;;23.73;62.31
20115;BME280;10218;42.874;25.320;2022-10-12T10:04:26;97916.22;;;24.51;57.86
20115;BME280;10218;42.874;25.320;2022-10-12T10:10:13;97916.31;;;23.47;62.66
20115;BME280;10218;42.874;25.320;2022-10-12T10:12:55;97911.84;;;22.81;64.42
20115;BME280;10218;42.874;25.320;2022-10-12T10:15:25;97901.28;;;22.73;63.67
20115;BME280;10218;42.874;25.320;2022-10-12T10:17:56;97902.59;;;22.52;63.78
20115;BME280;10218;42.874;25.320;2022-10-12T10:20:33;97906.66;;;22.79;62.74
20115;BME280;10218;42.874;25.320;2022-10-12T10:23:04;97899.41;;;24.31;57.82
20115;BME280;10218;42.874;25.320;2022-10-12T10:25:32;97893.72;;;24.09;58.11
20115;BME280;10218;42.874;25.320;2022-10-12T10:28:31;97891.41;;;23.90;62.16
20115;BME280;10218;42.874;25.320;2022-10-12T10:31:05;97888.78;;;22.35;70.88
20115;BME280;10218;42.874;25.320;2022-10-12T10:33:35;97891.66;;;23.53;63.54
20115;BME280;10218;42.874;25.320;2022-10-12T10:36:21;97889.00;;;23.35;62.68
20115;BME280;10218;42.874;25.320;2022-10-12T10:41:16;97894.50;;;20.98;81.25
20115;BME280;10218;42.874;25.320;2022-10-12T10:43:47;97878.94;;;21.80;83.07
20115;BME280;10218;42.874;25.320;2022-10-12T10:46:22;97878.31;;;23.10;73.66
20115;BME280;10218;42.874;25.320;2022-10-12T10:48:54;97872.22;;;22.67;71.86
20115;BME280;10218;42.874;25.320;2022-10-12T10:51:50;97874.25;;;22.41;76.40
20115;BME280;10218;42.874;25.320;2022-10-12T10:56:51;97873.69;;;21.42;83.91
20115;BME280;10218;42.874;25.320;2022-10-12T11:02:14;97869.88;;;21.67;76.92
20115;BME280;10218;42.874;25.320;2022-10-12T11:04:56;97866.75;;;22.07;73.41
20115;BME280;10218;42.874;25.320;2022-10-12T11:07:35;97867.78;;;23.25;67.04
20115;BME280;10218;42.874;25.320;2022-10-12T11:10:13;97868.31;;;22.62;64.48
20115;BME280;10218;42.874;25.320;2022-10-12T11:12:47;97865.63;;;21.04;81.84
20115;BME280;10218;42.874;25.320;2022-10-12T11:15:23;97856.38;;;20.55;90.51
20115;BME280;10218;42.874;25.320;2022-10-12T11:17:57;97855.75;;;20.84;85.04
20115;BME280;10218;42.874;25.320;2022-10-12T11:20:42;97848.72;;;21.69;68.14
20115;BME280;10218;42.874;25.320;2022-10-12T11:26:27;97847.88;;;21.69;73.03
20115;BME280;10218;42.874;25.320;2022-10-12T11:28:57;97857.03;;;21.74;65.99
20115;BME280;10218;42.874;25.320;2022-10-12T11:31:32;97857.56;;;21.47;67.48
20115;BME280;10218;42.874;25.320;2022-10-12T11:34:05;97861.09;;;20.98;74.58
20115;BME280;10218;42.874;25.320;2022-10-12T11:36:42;97854.63;;;21.48;75.10
20115;BME280;10218;42.874;25.320;2022-10-12T11:39:34;97851.91;;;21.85;76.09
20115;BME280;10218;42.874;25.320;2022-10-12T11:42:05;97842.16;;;23.15;64.77
20115;BME280;10218;42.874;25.320;2022-10-12T11:44:46;97844.97;;;21.89;70.26
20115;BME280;10218;42.874;25.320;2022-10-12T11:49:59;97837.88;;;22.66;57.82
20115;BME280;10218;42.874;25.320;2022-10-12T11:52:42;97842.59;;;22.29;57.37
20115;BME280;10218;42.874;25.320;2022-10-12T11:58:30;97836.31;;;24.04;55.01
20115;BME280;10218;42.874;25.320;2022-10-12T12:01:31;97832.78;;;22.99;59.55
20115;BME280;10218;42.874;25.320;2022-10-12T12:04:13;97834.34;;;23.18;54.69
20115;BME280;10218;42.874;25.320;2022-10-12T12:18:29;97823.03;;;21.47;66.53
20115;BME280;10218;42.874;25.320;2022-10-12T12:21:06;97825.00;;;20.66;75.06
20115;BME280;10218;42.874;25.320;2022-10-12T12:23:50;97828.94;;;20.95;84.45
20115;BME280;10218;42.874;25.320;2022-10-12T12:26:21;97828.13;;;20.25;85.42
20115;BME280;10218;42.874;25.320;2022-10-12T12:29:07;97832.12;;;21.16;78.86
20115;BME280;10218;42.874;25.320;2022-10-12T12:31:36;97833.97;;;20.35;78.49
20115;BME280;10218;42.874;25.320;2022-10-12T12:34:14;97827.88;;;20.96;75.61
20115;BME280;10218;42.874;25.320;2022-10-12T12:36:45;97833.19;;;21.09;76.52
20115;BME280;10218;42.874;25.320;2022-10-12T12:39:23;97826.94;;;20.83;81.99
20115;BME280;10218;42.874;25.320;2022-10-12T12:42:06;97827.84;;;21.02;76.30
20115;BME280;10218;42.874;25.320;2022-10-12T12:44:36;97832.25;;;21.46;76.69
20115;BME280;10218;42.874;25.320;2022-10-12T12:49:53;97828.13;;;21.19;74.61
20115;BME280;10218;42.874;25.320;2022-10-12T12:52:36;97830.78;;;21.25;61.49
20115;BME280;10218;42.874;25.320;2022-10-12T13:07:07;97837.69;;;20.97;51.51
20115;BME280;10218;42.874;25.320;2022-10-12T13:21:22;97835.69;;;21.17;50.18
20115;BME280;10218;42.874;25.320;2022-10-12T13:24:00;97839.66;;;21.14;49.59
20115;BME280;10218;42.874;25.320;2022-10-12T13:26:29;97839.41;;;20.91;49.92
20115;BME280;10218;42.874;25.320;2022-10-12T13:28:59;97847.88;;;20.76;49.65
20115;BME280;10218;42.874;25.320;2022-10-12T13:31:42;97848.47;;;20.78;49.90
20115;BME280;10218;42.874;25.320;2022-10-12T13:36:56;97844.72;;;20.48;54.11
20115;BME280;10218;42.874;25.320;2022-10-12T13:39:25;97841.94;;;20.61;54.14
20115;BME280;10218;42.874;25.320;2022-10-12T13:41:56;97845.44;;;20.30;55.41
20115;BME280;10218;42.874;25.320;2022-10-12T13:44:27;97841.16;;;20.10;54.71
20115;BME280;10218;42.874;25.320;2022-10-12T13:46:57;97844.41;;;20.25;55.31
20115;BME280;10218;42.874;25.320;2022-10-12T13:49:26;97842.59;;;20.12;55.67
20115;BME280;10218;42.874;25.320;2022-10-12T13:52:03;97847.56;;;19.71;57.36
20115;BME280;10218;42.874;25.320;2022-10-12T13:54:44;97846.63;;;19.96;58.10
20115;BME280;10218;42.874;25.320;2022-10-12T13:57:35;97843.31;;;19.94;56.59
20115;BME280;10218;42.874;25.320;2022-10-12T14:02:42;97838.81;;;19.62;55.78
20115;BME280;10218;42.874;25.320;2022-10-12T14:05:21;97842.22;;;19.25;57.61
20115;BME280;10218;42.874;25.320;2022-10-12T14:07:52;97837.81;;;19.10;57.21
20115;BME280;10218;42.874;25.320;2022-10-12T14:10:25;97834.94;;;19.18;56.46
20115;BME280;10218;42.874;25.320;2022-10-12T14:12:55;97836.75;;;19.31;56.25
20115;BME280;10218;42.874;25.320;2022-10-12T14:15:24;97843.37;;;19.68;55.62
20115;BME280;10218;42.874;25.320;2022-10-12T14:17:53;97843.84;;;19.39;56.80
20115;BME280;10218;42.874;25.320;2022-10-12T14:20:30;97846.56;;;19.32;55.49
20115;BME280;10218;42.874;25.320;2022-10-12T14:23:01;97845.97;;;19.23;56.05
20115;BME280;10218;42.874;25.320;2022-10-12T14:25:30;97846.56;;;19.26;57.64
20115;BME280;10218;42.874;25.320;2022-10-12T14:28:03;97850.34;;;18.78;59.59
20115;BME280;10218;42.874;25.320;2022-10-12T14:30:34;97851.37;;;19.10;58.00
20115;BME280;10218;42.874;25.320;2022-10-12T14:33:10;97858.03;;;18.68;60.79
20115;BME280;10218;42.874;25.320;2022-10-12T14:35:38;97856.78;;;18.71;64.39
20115;BME280;10218;42.874;25.320;2022-10-12T14:38:43;97851.59;;;18.89;65.11
20115;BME280;10218;42.874;25.320;2022-10-12T14:41:37;97860.13;;;18.66;66.48